Time;durP1;ratioP1;P1;durP2;ratioP2;P2;SDS_P1;SDS_P2;PMS_P1;PMS_P2;Temp;Humidity;BMP_temperature;BMP_pressure;BME280_temperature;BME280_humidity;BME280_pressure;Samples;Min_cycle;Max_cycle;Signal;HPM_P1;HPM_P2
2022/09/18 00:02:08;;;;;;;4.70;2.67;;;8.20;99.90;;;;;;5082624;28;20485;-43
2022/09/18 00:04:34;;;;;;;5.60;2.70;;;8.20;99.90;;;;;;5117171;28;20172;-44
2022/09/18 00:06:59;;;;;;;5.30;2.30;;;8.20;99.90;;;;;;5117796;28;20180;-46
2022/09/18 00:09:25;;;;;;;3.67;2.50;;;8.20;99.90;;;;;;5117856;28;20168;-43
2022/09/18 00:11:51;;;;;;;6.13;2.60;;;8.20;99.90;;;;;;5117487;28;20263;-42
2022/09/18 00:14:21;;;;;;;5.27;3.03;;;8.20;99.90;;;;;;5117349;28;20546;-47
2022/09/18 00:16:47;;;;;;;6.17;2.43;;;8.20;99.90;;;;;;5118313;28;20221;-42
2022/09/18 00:19:13;;;;;;;5.10;2.30;;;8.20;99.90;;;;;;5099292;28;20410;-49
2022/09/18 00:21:41;;;;;;;6.63;2.30;;;8.20;99.90;;;;;;5115835;28;20513;-46
2022/09/18 00:24:07;;;;;;;8.60;2.53;;;8.20;99.90;;;;;;5117309;28;20412;-44
2022/09/18 00:26:34;;;;;;;3.43;2.30;;;8.30;99.90;;;;;;5117231;28;20402;-43
2022/09/18 00:29:00;;;;;;;3.50;2.30;;;8.30;99.90;;;;;;5119971;28;20232;-44
2022/09/18 00:31:31;;;;;;;5.10;2.40;;;8.40;99.90;;;;;;5121812;28;20528;-43
2022/09/18 00:33:58;;;;;;;5.90;2.57;;;8.40;99.90;;;;;;5121423;28;20457;-43
2022/09/18 00:36:24;;;;;;;3.33;2.10;;;8.40;99.90;;;;;;5121287;28;20428;-44
2022/09/18 00:38:50;;;;;;;4.70;2.40;;;8.40;99.90;;;;;;5121414;27;20433;-44
2022/09/18 00:41:23;;;;;;;6.03;2.50;;;8.40;99.90;;;;;;5140709;27;20167;-42
2022/09/18 00:43:50;;;;;;;3.20;2.53;;;8.40;99.90;;;;;;5130220;27;20537;-43
2022/09/18 00:46:33;;;;;;;6.67;2.63;;;8.40;99.90;;;;;;5102513;28;20706;-44
2022/09/18 00:49:02;;;;;;;3.33;2.50;;;8.40;99.90;;;;;;5102135;28;20500;-44
2022/09/18 00:51:32;;;;;;;5.23;2.80;;;8.40;99.90;;;;;;5120351;28;20410;-42
2022/09/18 00:54:08;;;;;;;4.77;2.60;;;8.40;99.90;;;;;;5095656;27;20917;-46
2022/09/18 00:56:34;;;;;;;7.20;2.57;;;8.40;99.90;;;;;;5122967;27;20420;-44
2022/09/18 00:58:59;;;;;;;8.43;2.93;;;8.40;99.90;;;;;;5122652;27;20799;-45
2022/09/18 01:01:25;;;;;;;7.50;2.80;;;8.40;99.90;;;;;;5142218;27;20164;-44
2022/09/18 01:03:50;;;;;;;7.30;3.27;;;8.40;99.90;;;;;;5131716;27;20218;-45
2022/09/18 01:06:30;;;;;;;4.73;2.67;;;8.40;99.90;;;;;;5120201;28;20167;-44
2022/09/18 01:09:17;;;;;;;7.67;2.60;;;8.50;99.90;;;;;;5108862;27;20214;-44
2022/09/18 01:11:51;;;;;;;6.93;2.83;;;8.50;99.90;;;;;;5122168;27;20400;-44
2022/09/18 01:14:28;;;;;;;6.60;3.17;;;8.50;99.90;;;;;;5123024;27;20435;-45
2022/09/18 01:17:12;;;;;;;5.63;2.40;;;8.50;99.90;;;;;;5122744;27;20428;-48
2022/09/18 01:20:02;;;;;;;5.50;2.93;;;8.50;99.90;;;;;;5123539;27;20401;-44
2022/09/18 01:22:46;;;;;;;5.63;2.30;;;8.50;99.90;;;;;;5141547;27;20493;-45
2022/09/18 01:25:24;;;;;;;5.50;2.60;;;8.50;99.90;;;;;;5121836;27;20433;-43
2022/09/18 01:28:20;;;;;;;6.57;3.10;;;8.50;99.90;;;;;;5102746;28;20425;-43
2022/09/18 01:30:47;;;;;;;5.90;2.23;;;8.50;99.90;;;;;;5121627;28;20433;-44
2022/09/18 01:33:21;;;;;;;5.30;2.60;;;8.50;99.90;;;;;;5101875;28;20425;-46
2022/09/18 01:35:53;;;;;;;4.77;2.60;;;8.50;99.90;;;;;;5102314;28;20509;-47
2022/09/18 01:38:22;;;;;;;7.47;2.50;;;8.50;99.90;;;;;;5100920;28;20444;-47
2022/09/18 01:40:55;;;;;;;4.43;2.07;;;8.50;99.90;;;;;;5100642;28;20539;-44
2022/09/18 01:43:22;;;;;;;6.37;2.60;;;8.50;99.90;;;;;;5100279;28;20470;-46
2022/09/18 01:45:51;;;;;;;5.67;2.57;;;8.50;99.90;;;;;;5100834;28;20417;-44
2022/09/18 01:48:24;;;;;;;8.20;1.93;;;8.40;99.90;;;;;;5100722;28;20430;-45
2022/09/18 01:50:53;;;;;;;7.97;2.30;;;8.50;99.90;;;;;;5100457;28;20535;-46
2022/09/18 01:53:29;;;;;;;6.07;2.47;;;8.50;99.90;;;;;;5100590;28;20728;-45
2022/09/18 01:56:23;;;;;;;3.30;1.90;;;8.50;99.90;;;;;;5101671;28;20491;-46
2022/09/18 01:58:50;;;;;;;7.00;2.50;;;8.50;99.90;;;;;;5101767;28;20426;-47
2022/09/18 02:01:18;;;;;;;5.20;2.60;;;8.50;99.90;;;;;;5101935;28;20414;-45
2022/09/18 02:03:48;;;;;;;6.70;2.67;;;8.50;99.90;;;;;;5102132;28;20847;-44
2022/09/18 02:06:35;;;;;;;6.20;2.57;;;8.50;99.90;;;;;;5102237;28;20799;-45
2022/09/18 02:09:01;;;;;;;3.53;2.40;;;8.50;99.90;;;;;;5101917;28;20429;-43
2022/09/18 02:11:27;;;;;;;6.43;2.67;;;8.50;99.90;;;;;;5100501;28;20410;-44
2022/09/18 02:13:55;;;;;;;5.17;2.30;;;8.50;99.90;;;;;;5084426;28;20449;-45
2022/09/18 02:16:26;;;;;;;4.60;2.63;;;8.50;99.90;;;;;;5119679;28;20413;-43
2022/09/18 02:18:56;;;;;;;5.40;2.87;;;8.50;99.90;;;;;;5119387;28;20445;-45
2022/09/18 02:21:26;;;;;;;5.03;2.73;;;8.50;99.90;;;;;;5118443;28;20418;-46
2022/09/18 02:23:54;;;;;;;6.87;2.70;;;8.50;99.90;;;;;;5100928;28;20555;-44
2022/09/18 02:26:21;;;;;;;6.63;2.73;;;8.40;99.90;;;;;;5118226;28;20410;-45
2022/09/18 02:28:48;;;;;;;6.43;3.30;;;8.40;99.90;;;;;;5118089;28;20430;-48
2022/09/18 02:31:15;;;;;;;5.50;2.93;;;8.40;99.90;;;;;;5118451;28;20417;-44
2022/09/18 02:33:41;;;;;;;8.80;3.27;;;8.40;99.90;;;;;;5118268;28;20793;-46
2022/09/18 02:36:51;;;;;;;5.47;3.30;;;8.40;99.90;;;;;;5118304;28;20414;-47
2022/09/18 02:39:38;;;;;;;6.17;3.10;;;8.40;99.90;;;;;;5086342;28;20191;-44
2022/09/18 02:42:10;;;;;;;4.90;2.50;;;8.40;99.90;;;;;;5117649;28;20477;-44
2022/09/18 02:45:07;;;;;;;6.07;2.70;;;8.40;99.90;;;;;;5117841;28;20422;-44
2022/09/18 02:47:43;;;;;;;2.63;2.33;;;8.40;99.90;;;;;;5073058;28;20422;-46
2022/09/18 02:50:23;;;;;;;4.50;2.57;;;8.50;99.90;;;;;;5100102;28;20413;-45
2022/09/18 02:52:54;;;;;;;8.90;2.53;;;8.40;99.90;;;;;;5099671;28;20706;-45
2022/09/18 02:55:29;;;;;;;2.60;1.87;;;8.40;99.90;;;;;;5101430;28;20480;-47
2022/09/18 02:58:14;;;;;;;6.70;2.70;;;8.40;99.90;;;;;;5100362;28;20437;-46
2022/09/18 03:00:42;;;;;;;4.97;2.60;;;8.40;99.90;;;;;;5118770;28;20404;-42
2022/09/18 03:03:13;;;;;;;3.60;2.50;;;8.40;99.90;;;;;;5100266;28;20850;-45
2022/09/18 03:05:38;;;;;;;2.43;2.17;;;8.40;99.90;;;;;;5100885;28;20417;-43
2022/09/18 03:08:04;;;;;;;5.90;2.93;;;8.30;99.90;;;;;;5118083;28;20422;-44
2022/09/18 03:10:30;;;;;;;3.00;2.30;;;8.30;99.90;;;;;;5119562;28;20171;-46
2022/09/18 03:12:55;;;;;;;4.67;2.37;;;8.30;99.90;;;;;;5118650;28;20184;-45
2022/09/18 03:15:21;;;;;;;3.93;2.67;;;8.30;99.90;;;;;;5118739;28;20762;-44
2022/09/18 03:17:46;;;;;;;9.30;2.70;;;8.30;99.90;;;;;;5118843;28;20187;-44
2022/09/18 03:20:12;;;;;;;4.93;2.53;;;8.30;99.90;;;;;;5118774;28;20195;-46
2022/09/18 03:22:38;;;;;;;3.43;2.20;;;8.20;99.90;;;;;;5118505;28;20204;-47
2022/09/18 03:25:04;;;;;;;5.00;2.30;;;8.30;99.90;;;;;;5118598;28;20172;-45
2022/09/18 03:27:29;;;;;;;3.87;2.00;;;8.30;99.90;;;;;;5119030;28;20202;-45
2022/09/18 03:29:55;;;;;;;4.30;2.50;;;8.30;99.90;;;;;;5118712;28;20798;-45
2022/09/18 03:32:21;;;;;;;5.00;2.03;;;8.30;99.90;;;;;;5118142;28;20172;-45
2022/09/18 03:34:47;;;;;;;2.97;2.07;;;8.20;99.90;;;;;;5118407;28;20424;-45
2022/09/18 03:37:12;;;;;;;2.67;2.30;;;8.20;99.90;;;;;;5099963;28;20176;-47
2022/09/18 03:39:38;;;;;;;3.10;2.10;;;8.20;99.90;;;;;;5118318;28;20461;-42
2022/09/18 03:42:04;;;;;;;2.80;2.10;;;8.20;99.90;;;;;;5118511;28;20276;-44
2022/09/18 03:44:29;;;;;;;2.70;2.30;;;8.20;99.90;;;;;;5118544;28;20187;-43
2022/09/18 03:46:55;;;;;;;3.70;2.30;;;8.10;99.90;;;;;;5118408;28;20180;-45
2022/09/18 03:49:20;;;;;;;3.50;2.43;;;8.20;99.90;;;;;;5118030;28;20428;-43
2022/09/18 03:51:46;;;;;;;4.03;2.70;;;8.20;99.90;;;;;;5118593;28;20203;-46
2022/09/18 03:54:13;;;;;;;4.90;2.40;;;8.20;99.90;;;;;;5118295;28;20289;-47
2022/09/18 03:56:39;;;;;;;5.43;2.27;;;8.10;99.90;;;;;;5100521;28;20194;-46
2022/09/18 03:59:04;;;;;;;4.83;2.53;;;8.20;99.90;;;;;;5117683;28;20410;-46
2022/09/18 04:01:30;;;;;;;4.80;2.50;;;8.20;99.90;;;;;;5117905;28;20171;-46
2022/09/18 04:03:56;;;;;;;3.53;2.30;;;8.20;99.90;;;;;;5117384;28;20297;-46
2022/09/18 04:06:21;;;;;;;4.57;2.20;;;8.20;99.90;;;;;;5117619;28;20180;-43
2022/09/18 04:08:47;;;;;;;4.13;2.30;;;8.20;99.90;;;;;;5117410;28;20168;-43
2022/09/18 04:11:12;;;;;;;3.50;2.50;;;8.30;99.90;;;;;;5117983;28;20191;-46
2022/09/18 04:13:38;;;;;;;4.43;2.43;;;8.20;99.90;;;;;;5118211;28;20596;-45
2022/09/18 04:16:04;;;;;;;3.27;2.03;;;8.30;99.90;;;;;;5118340;28;20565;-45
2022/09/18 04:18:29;;;;;;;6.70;2.00;;;8.30;99.90;;;;;;5118203;28;20260;-45
2022/09/18 04:20:55;;;;;;;5.97;2.20;;;8.30;99.90;;;;;;5117365;28;20169;-45
2022/09/18 04:23:21;;;;;;;3.80;2.43;;;8.40;99.90;;;;;;5116533;28;20204;-43
2022/09/18 04:25:46;;;;;;;3.40;2.27;;;8.30;99.90;;;;;;5117265;28;20522;-43
2022/09/18 04:28:12;;;;;;;4.13;2.33;;;8.40;99.90;;;;;;5116246;28;20164;-44
2022/09/18 04:30:38;;;;;;;3.33;2.20;;;8.40;99.90;;;;;;5115204;28;20196;-45
2022/09/18 04:33:04;;;;;;;2.97;2.33;;;8.40;99.90;;;;;;5115996;28;20168;-46
2022/09/18 04:35:30;;;;;;;4.33;2.60;;;8.40;99.90;;;;;;5115969;28;20627;-44
2022/09/18 04:37:55;;;;;;;3.50;2.70;;;8.40;99.90;;;;;;5114926;28;20414;-45
2022/09/18 04:40:21;;;;;;;2.93;2.47;;;8.40;99.90;;;;;;5116184;28;20494;-45
2022/09/18 04:42:46;;;;;;;8.10;3.00;;;8.40;99.90;;;;;;5117812;28;20201;-45
2022/09/18 04:45:12;;;;;;;2.90;2.13;;;8.50;99.90;;;;;;5116570;28;20598;-44
2022/09/18 04:47:37;;;;;;;4.10;2.80;;;8.40;99.90;;;;;;5118471;28;20255;-45
2022/09/18 04:50:07;;;;;;;4.20;2.20;;;8.50;99.90;;;;;;5118472;28;20191;-43
2022/09/18 04:52:33;;;;;;;5.00;3.10;;;8.40;99.90;;;;;;5117675;28;20565;-45
2022/09/18 04:54:59;;;;;;;4.17;2.57;;;8.50;99.90;;;;;;5117607;28;20462;-45
2022/09/18 04:57:24;;;;;;;3.20;2.90;;;8.40;99.90;;;;;;5117194;28;20419;-44
2022/09/18 04:59:50;;;;;;;4.57;2.57;;;8.40;99.90;;;;;;5117678;28;20168;-44
2022/09/18 05:02:17;;;;;;;4.40;2.50;;;8.40;99.90;;;;;;5117362;28;20260;-43
2022/09/18 05:04:43;;;;;;;2.97;2.67;;;8.40;99.90;;;;;;5117101;28;20558;-44
2022/09/18 05:07:09;;;;;;;2.60;2.40;;;8.40;99.90;;;;;;5118405;28;20480;-44
2022/09/18 05:09:35;;;;;;;3.70;2.50;;;8.40;99.90;;;;;;5116387;28;20500;-44
2022/09/18 05:12:01;;;;;;;4.20;2.60;;;8.40;99.90;;;;;;5098677;28;20188;-45
2022/09/18 05:14:26;;;;;;;5.30;2.87;;;8.40;99.90;;;;;;5119090;28;20168;-45
2022/09/18 05:16:55;;;;;;;3.43;2.80;;;8.40;99.90;;;;;;5121615;28;20431;-45
2022/09/18 05:19:21;;;;;;;5.27;3.07;;;8.40;99.90;;;;;;5103552;28;20500;-46
2022/09/18 05:21:50;;;;;;;5.00;2.57;;;8.50;99.90;;;;;;5101817;28;20846;-44
2022/09/18 05:24:16;;;;;;;5.50;3.20;;;8.50;99.90;;;;;;5121529;28;20410;-44
2022/09/18 05:26:43;;;;;;;4.83;2.37;;;8.60;99.90;;;;;;5121342;28;20490;-44
2022/09/18 05:29:08;;;;;;;2.90;2.50;;;8.60;99.90;;;;;;5120584;28;20839;-46
2022/09/18 05:31:34;;;;;;;2.27;2.07;;;8.60;99.90;;;;;;5120417;28;20452;-45
2022/09/18 05:33:59;;;;;;;3.00;2.80;;;8.60;99.90;;;;;;5120718;28;20421;-44
2022/09/18 05:36:25;;;;;;;3.10;2.80;;;8.60;99.90;;;;;;5120779;28;20233;-44
2022/09/18 05:38:51;;;;;;;3.87;2.50;;;8.60;99.90;;;;;;5120827;28;20204;-43
2022/09/18 05:41:16;;;;;;;3.03;2.30;;;8.60;99.90;;;;;;5120182;28;20285;-46
2022/09/18 05:43:44;;;;;;;2.20;1.93;;;8.60;99.90;;;;;;5120053;28;20469;-45
2022/09/18 05:46:11;;;;;;;3.30;2.00;;;8.70;99.90;;;;;;5121028;28;20184;-45
2022/09/18 05:48:36;;;;;;;5.10;2.20;;;8.60;99.90;;;;;;5120083;28;20402;-47
2022/09/18 05:51:02;;;;;;;2.40;2.20;;;8.70;99.90;;;;;;5120576;28;20422;-47
2022/09/18 05:53:28;;;;;;;2.87;2.33;;;8.70;99.90;;;;;;5120606;28;20225;-49
2022/09/18 05:55:54;;;;;;;4.67;2.77;;;8.70;99.90;;;;;;5102455;28;20473;-45
2022/09/18 05:58:20;;;;;;;3.40;2.70;;;8.70;99.90;;;;;;5119926;28;20168;-47
2022/09/18 06:00:46;;;;;;;4.80;3.03;;;8.70;99.90;;;;;;5102365;28;20259;-45
2022/09/18 06:03:14;;;;;;;2.97;2.70;;;8.70;99.90;;;;;;5120359;28;20960;-43
2022/09/18 06:05:40;;;;;;;6.67;3.30;;;8.60;99.90;;;;;;5119714;28;20471;-44
2022/09/18 06:08:11;;;;;;;4.50;3.40;;;8.70;99.90;;;;;;5119601;28;20459;-48
2022/09/18 06:10:38;;;;;;;4.37;3.17;;;8.70;99.90;;;;;;5119228;28;20398;-45
2022/09/18 06:13:07;;;;;;;5.83;2.83;;;8.70;99.90;;;;;;5118122;28;20473;-46
2022/09/18 06:15:35;;;;;;;7.00;3.00;;;8.80;99.90;;;;;;5117417;28;20780;-45
2022/09/18 06:18:01;;;;;;;4.97;3.27;;;8.80;99.90;;;;;;5099964;28;20419;-48
2022/09/18 06:20:27;;;;;;;3.60;2.90;;;8.80;99.90;;;;;;5118456;28;20418;-45
2022/09/18 06:22:52;;;;;;;6.03;3.77;;;8.80;99.90;;;;;;5118701;28;20470;-44
2022/09/18 06:25:20;;;;;;;6.10;3.77;;;8.80;99.90;;;;;;5118933;28;20191;-45
2022/09/18 06:27:47;;;;;;;3.87;3.53;;;8.80;99.90;;;;;;5117363;28;20426;-44
2022/09/18 06:30:13;;;;;;;3.43;3.13;;;8.90;99.90;;;;;;5119971;28;20691;-46
2022/09/18 06:32:38;;;;;;;3.43;3.13;;;8.90;99.90;;;;;;5101713;28;20568;-45
2022/09/18 06:35:04;;;;;;;5.30;3.50;;;9.00;99.90;;;;;;5119433;28;20183;-44
2022/09/18 06:37:30;;;;;;;5.40;3.60;;;9.10;99.90;;;;;;5101793;28;20442;-44
2022/09/18 06:39:56;;;;;;;4.10;3.40;;;9.20;99.90;;;;;;5118143;28;20441;-45
2022/09/18 06:42:21;;;;;;;3.73;3.33;;;9.20;99.90;;;;;;5115719;28;20477;-45
2022/09/18 06:44:47;;;;;;;3.90;3.50;;;9.10;99.90;;;;;;5084074;28;20332;-43
2022/09/18 06:47:12;;;;;;;4.00;3.63;;;9.20;99.90;;;;;;5118863;28;20575;-44
2022/09/18 06:49:38;;;;;;;4.10;3.20;;;9.30;99.90;;;;;;5117687;28;20278;-44
2022/09/18 06:52:04;;;;;;;4.43;3.33;;;9.40;99.90;;;;;;5118747;28;20168;-45
2022/09/18 06:54:29;;;;;;;3.17;2.87;;;9.40;99.90;;;;;;5118847;28;20292;-46
2022/09/18 06:56:55;;;;;;;7.33;3.43;;;9.40;99.90;;;;;;5099572;28;20427;-44
2022/09/18 06:59:21;;;;;;;3.90;3.10;;;9.40;99.90;;;;;;5080997;28;20168;-44
2022/09/18 07:01:50;;;;;;;6.07;3.37;;;9.40;99.90;;;;;;5116538;28;20177;-43
2022/09/18 07:04:16;;;;;;;6.60;3.80;;;9.40;99.90;;;;;;5100069;28;20433;-45
2022/09/18 07:06:45;;;;;;;4.57;3.33;;;9.40;99.90;;;;;;5117057;28;20414;-47
2022/09/18 07:09:10;;;;;;;5.87;4.10;;;9.40;99.90;;;;;;5118413;28;20528;-46
2022/09/18 07:11:36;;;;;;;7.07;4.10;;;9.50;99.90;;;;;;5116747;28;20414;-47
2022/09/18 07:14:05;;;;;;;4.47;3.17;;;9.50;99.90;;;;;;5117478;28;20181;-47
2022/09/18 07:16:31;;;;;;;4.90;2.83;;;9.60;99.90;;;;;;5116197;28;20200;-45
2022/09/18 07:18:56;;;;;;;5.43;3.17;;;9.60;99.90;;;;;;5117322;28;20886;-46
2022/09/18 07:21:22;;;;;;;5.90;3.10;;;9.60;99.90;;;;;;5118299;28;20239;-46
2022/09/18 07:23:48;;;;;;;2.90;2.60;;;9.60;99.90;;;;;;5117552;28;20242;-44
2022/09/18 07:26:13;;;;;;;4.70;2.70;;;9.60;99.90;;;;;;5117220;28;20204;-46
2022/09/18 07:28:39;;;;;;;2.90;2.70;;;9.50;99.90;;;;;;5117783;28;20192;-44
2022/09/18 07:31:05;;;;;;;6.40;2.97;;;9.50;99.90;;;;;;5118451;28;20225;-42
2022/09/18 07:33:31;;;;;;;2.37;2.17;;;9.60;99.90;;;;;;5117355;28;20200;-47
2022/09/18 07:36:01;;;;;;;3.50;2.63;;;9.50;99.90;;;;;;5098586;28;20414;-45
2022/09/18 07:38:27;;;;;;;3.13;2.83;;;9.60;99.90;;;;;;5116997;28;20769;-47
2022/09/18 07:40:52;;;;;;;3.57;2.40;;;9.60;99.90;;;;;;5097971;28;20538;-43
2022/09/18 07:43:18;;;;;;;3.63;2.27;;;9.50;99.90;;;;;;5116744;28;20207;-48
2022/09/18 07:45:44;;;;;;;6.70;3.20;;;9.50;99.90;;;;;;5116841;28;20527;-42
2022/09/18 07:48:09;;;;;;;3.60;3.20;;;9.40;99.90;;;;;;5116973;28;20189;-42
2022/09/18 07:50:35;;;;;;;7.93;3.00;;;9.50;99.90;;;;;;5116231;28;20217;-45
2022/09/18 07:53:04;;;;;;;5.10;2.60;;;9.50;99.90;;;;;;5116812;28;20183;-45
2022/09/18 07:55:30;;;;;;;5.43;2.57;;;9.40;99.90;;;;;;5117489;28;20268;-45
2022/09/18 07:57:58;;;;;;;4.00;2.57;;;9.50;99.90;;;;;;5116888;28;20426;-43
2022/09/18 08:00:25;;;;;;;4.03;2.50;;;9.50;99.90;;;;;;5115942;28;20419;-47
2022/09/18 08:03:01;;;;;;;2.83;2.43;;;9.60;99.90;;;;;;5116621;28;20496;-45
2022/09/18 08:05:26;;;;;;;5.20;2.60;;;9.70;99.90;;;;;;5098632;28;20508;-46
2022/09/18 08:07:52;;;;;;;3.43;2.20;;;9.80;99.90;;;;;;5115991;28;20798;-44
2022/09/18 08:10:17;;;;;;;2.90;2.30;;;9.80;99.90;;;;;;5116184;28;20168;-45
2022/09/18 08:12:43;;;;;;;3.63;2.20;;;9.80;99.90;;;;;;5114940;28;20419;-44
2022/09/18 08:15:09;;;;;;;3.67;2.20;;;9.80;99.90;;;;;;5115787;28;20473;-44
2022/09/18 08:17:34;;;;;;;3.40;2.43;;;9.80;99.90;;;;;;5096969;28;20180;-42
2022/09/18 08:20:00;;;;;;;4.37;2.03;;;9.80;99.90;;;;;;5114815;28;20414;-42
2022/09/18 08:22:26;;;;;;;2.67;2.47;;;9.90;99.90;;;;;;5115502;28;20605;-44
2022/09/18 08:24:51;;;;;;;4.30;2.30;;;9.90;99.90;;;;;;5114590;28;20173;-45
2022/09/18 08:27:17;;;;;;;4.67;2.87;;;9.80;99.90;;;;;;5098132;28;20440;-45
2022/09/18 08:29:43;;;;;;;4.23;2.33;;;9.80;99.90;;;;;;5097892;28;20174;-50
2022/09/18 08:32:09;;;;;;;5.30;2.50;;;9.80;99.90;;;;;;5097619;28;20182;-44
2022/09/18 08:34:34;;;;;;;5.30;2.60;;;9.80;99.90;;;;;;5115671;28;20263;-45
2022/09/18 08:37:00;;;;;;;4.07;2.47;;;9.90;99.90;;;;;;5115250;28;20525;-45
2022/09/18 08:39:26;;;;;;;4.57;3.13;;;9.90;99.90;;;;;;5115277;28;20242;-48
2022/09/18 08:42:06;;;;;;;4.87;2.93;;;9.90;99.90;;;;;;5097864;28;20184;-48
2022/09/18 08:44:40;;;;;;;5.30;2.97;;;10.00;99.90;;;;;;5081185;28;20434;-44
2022/09/18 08:47:15;;;;;;;3.53;2.70;;;9.90;99.90;;;;;;5095992;28;20417;-43
2022/09/18 08:49:45;;;;;;;4.50;2.40;;;10.10;99.90;;;;;;5097892;28;20539;-45
2022/09/18 08:52:20;;;;;;;5.30;2.53;;;10.10;99.90;;;;;;5120259;28;20514;-45
2022/09/18 08:54:49;;;;;;;4.67;2.67;;;10.10;99.90;;;;;;5128754;27;20460;-44
2022/09/18 08:57:36;;;;;;;4.97;3.77;;;10.00;99.90;;;;;;5141222;27;20444;-46
2022/09/18 09:00:25;;;;;;;4.70;3.83;;;10.10;99.90;;;;;;5120727;28;20406;-44
2022/09/18 09:03:17;;;;;;;4.63;2.90;;;10.10;99.90;;;;;;5119749;28;20482;-44
2022/09/18 09:05:47;;;;;;;6.90;2.70;;;10.00;99.90;;;;;;5109508;28;20489;-45
2022/09/18 09:08:15;;;;;;;4.83;2.70;;;10.00;99.90;;;;;;5119596;28;20412;-46
2022/09/18 09:11:00;;;;;;;4.90;3.40;;;10.10;99.90;;;;;;5117447;28;20412;-45
2022/09/18 09:13:50;;;;;;;8.93;4.00;;;10.20;99.90;;;;;;5117459;28;20425;-46
2022/09/18 09:16:37;;;;;;;6.37;3.50;;;10.30;99.90;;;;;;5115368;28;20507;-42
2022/09/18 09:19:26;;;;;;;3.50;2.73;;;10.50;99.90;;;;;;5118804;28;20420;-43
2022/09/18 09:22:25;;;;;;;6.90;3.00;;;10.40;99.90;;;;;;5117318;28;20571;-43
2022/09/18 09:25:03;;;;;;;6.53;2.60;;;10.50;99.90;;;;;;5119198;28;20418;-43
2022/09/18 09:27:34;;;;;;;5.10;2.87;;;10.40;99.90;;;;;;5099588;28;20839;-42
2022/09/18 09:30:14;;;;;;;4.70;2.80;;;10.40;99.90;;;;;;5099218;28;20768;-43
2022/09/18 09:33:20;;;;;;;3.00;2.70;;;10.40;99.90;;;;;;5101300;28;20430;-47
2022/09/18 09:36:01;;;;;;;4.07;3.30;;;10.60;99.90;;;;;;5015790;28;20894;-45
2022/09/18 09:38:38;;;;;;;3.60;2.83;;;10.80;99.90;;;;;;5111933;28;20517;-45
2022/09/18 09:41:24;;;;;;;5.27;2.83;;;11.10;99.90;;;;;;5100368;28;20695;-43
2022/09/18 09:44:30;;;;;;;3.73;2.43;;;11.20;99.90;;;;;;5116740;28;20481;-47
2022/09/18 09:47:13;;;;;;;2.73;1.77;;;11.30;99.90;;;;;;5071278;28;20428;-45
2022/09/18 09:50:07;;;;;;;7.30;2.20;;;11.40;99.90;;;;;;5116773;28;20997;-43
2022/09/18 09:52:32;;;;;;;3.13;1.97;;;11.60;99.60;;;;;;5118142;28;20414;-43
2022/09/18 09:55:18;;;;;;;3.30;2.20;;;11.80;99.80;;;;;;5118306;28;20530;-44
2022/09/18 09:58:06;;;;;;;4.40;2.13;;;12.20;99.20;;;;;;5119507;28;20179;-44
2022/09/18 10:01:10;;;;;;;3.60;2.20;;;12.50;99.10;;;;;;5103331;28;20779;-47
2022/09/18 10:04:21;;;;;;;3.03;2.10;;;12.50;98.10;;;;;;5063664;28;20474;-45
2022/09/18 10:07:14;;;;;;;4.40;2.07;;;12.40;98.40;;;;;;5117717;28;20417;-45
2022/09/18 10:09:51;;;;;;;4.63;2.07;;;12.60;97.60;;;;;;5084078;28;20452;-43
2022/09/18 10:12:36;;;;;;;2.90;1.40;;;12.70;97.00;;;;;;5119258;28;20414;-45
2022/09/18 10:15:15;;;;;;;5.40;1.57;;;12.70;97.20;;;;;;5117556;28;20421;-43
2022/09/18 10:17:42;;;;;;;2.87;2.17;;;13.00;96.40;;;;;;5100123;28;20423;-47
2022/09/18 10:20:14;;;;;;;5.27;2.43;;;13.40;96.30;;;;;;5099305;28;20912;-48
2022/09/18 10:22:39;;;;;;;6.47;3.93;;;13.90;94.90;;;;;;5100342;28;20469;-47
2022/09/18 10:25:26;;;;;;;3.70;2.70;;;14.00;94.70;;;;;;5118027;28;20430;-45
2022/09/18 10:27:51;;;;;;;6.00;3.90;;;14.00;94.50;;;;;;5099490;28;20409;-44
2022/09/18 10:30:17;;;;;;;7.93;3.33;;;13.70;94.40;;;;;;5116382;28;20456;-48
2022/09/18 10:32:42;;;;;;;4.73;1.30;;;13.40;94.00;;;;;;5118083;28;20197;-44
2022/09/18 10:35:29;;;;;;;3.10;1.40;;;13.10;93.20;;;;;;5099325;28;20696;-46
2022/09/18 10:37:54;;;;;;;2.97;1.37;;;13.20;93.20;;;;;;5101013;28;20207;-44
2022/09/18 10:40:34;;;;;;;4.40;1.30;;;13.50;93.10;;;;;;5119215;28;20435;-46
2022/09/18 10:43:01;;;;;;;3.73;1.70;;;14.10;91.30;;;;;;5118775;27;20463;-45
2022/09/18 10:45:32;;;;;;;3.30;1.43;;;14.30;90.90;;;;;;5117450;28;20483;-48
2022/09/18 10:48:09;;;;;;;2.40;1.00;;;14.30;88.70;;;;;;5117238;28;20415;-47
2022/09/18 10:50:36;;;;;;;6.27;1.27;;;14.60;88.20;;;;;;5115483;28;20418;-45
2022/09/18 10:53:38;;;;;;;4.63;1.47;;;14.40;88.10;;;;;;5096988;28;20707;-46
2022/09/18 10:56:15;;;;;;;4.23;1.30;;;14.20;88.30;;;;;;5115295;28;20443;-43
2022/09/18 10:58:42;;;;;;;5.13;1.40;;;14.30;89.30;;;;;;5116651;28;20426;-57
2022/09/18 11:01:08;;;;;;;5.60;1.60;;;15.20;90.10;;;;;;5114902;28;20413;-50
2022/09/18 11:03:46;;;;;;;4.40;1.90;;;16.30;87.50;;;;;;5113267;28;20594;-47
2022/09/18 11:06:23;;;;;;;2.73;1.47;;;16.70;84.50;;;;;;5116253;28;21030;-49
2022/09/18 11:08:57;;;;;;;3.57;1.30;;;17.70;81.50;;;;;;5098912;28;20427;-48
2022/09/18 11:11:31;;;;;;;4.20;1.60;;;18.30;77.30;;;;;;5098617;28;20748;-50
2022/09/18 11:14:02;;;;;;;2.20;0.90;;;19.20;74.30;;;;;;5097898;28;20419;-50
2022/09/18 11:16:31;;;;;;;2.90;1.40;;;19.70;72.10;;;;;;5114676;28;20438;-47
2022/09/18 11:19:06;;;;;;;7.50;1.50;;;19.10;68.50;;;;;;5115020;28;20861;-45
2022/09/18 11:21:32;;;;;;;3.13;1.23;;;17.60;71.60;;;;;;5114840;28;20506;-43
2022/09/18 11:24:03;;;;;;;3.30;1.30;;;17.20;75.00;;;;;;5097512;28;20955;-45
2022/09/18 11:26:30;;;;;;;3.20;1.10;;;17.50;74.70;;;;;;5099121;28;20415;-48
2022/09/18 11:29:16;;;;;;;5.10;1.33;;;18.10;72.60;;;;;;5115422;28;20441;-47
2022/09/18 11:31:43;;;;;;;3.30;1.53;;;18.50;70.40;;;;;;5115643;28;20503;-46
2022/09/18 11:34:27;;;;;;;2.93;1.20;;;19.00;67.80;;;;;;5098456;28;20426;-51
2022/09/18 11:36:57;;;;;;;2.63;1.37;;;18.80;66.60;;;;;;5098372;28;20437;-43
2022/09/18 11:39:27;;;;;;;3.67;1.37;;;17.90;66.30;;;;;;5115621;28;20416;-43
2022/09/18 11:41:53;;;;;;;2.77;1.10;;;17.30;70.50;;;;;;5096383;28;20820;-43
2022/09/18 11:44:30;;;;;;;2.00;1.23;;;17.70;70.30;;;;;;5115254;28;20964;-44
2022/09/18 11:47:16;;;;;;;3.10;1.03;;;17.40;69.50;;;;;;5098286;28;20428;-46
2022/09/18 11:49:49;;;;;;;2.40;1.07;;;16.90;70.30;;;;;;5115643;28;20417;-46
2022/09/18 11:52:22;;;;;;;2.80;1.03;;;15.70;72.00;;;;;;5097678;28;20507;-44
2022/09/18 11:55:06;;;;;;;3.70;1.50;;;15.10;76.40;;;;;;5115014;28;20740;-46
2022/09/18 11:57:39;;;;;;;3.53;1.70;;;14.80;78.50;;;;;;5097986;28;20427;-45
2022/09/18 12:00:16;;;;;;;4.50;1.27;;;14.90;80.10;;;;;;5118243;28;20422;-45
2022/09/18 12:02:51;;;;;;;3.00;1.37;;;15.40;80.10;;;;;;5117355;28;20892;-47
2022/09/18 12:05:28;;;;;;;3.70;1.57;;;15.10;79.20;;;;;;5117124;28;20797;-45
2022/09/18 12:08:27;;;;;;;3.07;1.20;;;15.50;79.50;;;;;;5099519;28;20434;-46
2022/09/18 12:11:11;;;;;;;4.07;2.10;;;15.60;78.60;;;;;;5100024;28;20432;-44
2022/09/18 12:13:58;;;;;;;4.20;1.63;;;15.50;78.10;;;;;;5117009;28;20730;-43
2022/09/18 12:16:41;;;;;;;4.60;1.60;;;15.60;79.00;;;;;;5116227;28;20495;-45
2022/09/18 12:19:16;;;;;;;3.37;1.33;;;15.30;79.70;;;;;;5116539;28;20423;-44
2022/09/18 12:21:41;;;;;;;3.13;1.33;;;15.20;78.80;;;;;;5117025;28;20406;-46
2022/09/18 12:24:13;;;;;;;3.70;1.23;;;15.40;78.50;;;;;;5117647;28;20981;-44
2022/09/18 12:27:09;;;;;;;2.90;1.30;;;15.90;77.10;;;;;;5120613;28;20550;-44
2022/09/18 12:29:46;;;;;;;2.10;1.10;;;16.80;74.50;;;;;;5108768;28;20723;-44
2022/09/18 12:32:18;;;;;;;1.70;1.10;;;17.30;70.40;;;;;;5118919;28;20448;-43
2022/09/18 12:35:07;;;;;;;1.70;0.90;;;17.70;69.00;;;;;;5119886;28;20502;-43
2022/09/18 12:37:51;;;;;;;3.40;1.40;;;18.00;63.60;;;;;;5120004;28;20575;-45
2022/09/18 12:40:35;;;;;;;2.13;0.90;;;18.00;63.90;;;;;;5119671;28;20450;-45
2022/09/18 12:43:12;;;;;;;2.93;1.53;;;17.00;65.90;;;;;;5118982;28;20488;-46
2022/09/18 12:46:06;;;;;;;5.20;1.67;;;16.10;67.40;;;;;;5121443;28;20478;-48
2022/09/18 12:48:49;;;;;;;3.83;1.43;;;15.80;67.40;;;;;;5107682;28;21057;-47
2022/09/18 12:51:27;;;;;;;4.27;1.43;;;16.70;66.90;;;;;;5105025;28;20940;-42
2022/09/18 12:54:08;;;;;;;2.67;0.93;;;17.80;64.00;;;;;;5120045;28;20435;-44
2022/09/18 12:56:47;;;;;;;2.77;0.80;;;18.30;58.90;;;;;;5119660;28;20513;-44
2022/09/18 12:59:34;;;;;;;2.43;1.17;;;18.00;57.10;;;;;;5119977;28;20422;-44
2022/09/18 13:02:22;;;;;;;3.93;0.90;;;17.70;56.60;;;;;;5118552;28;20411;-45
2022/09/18 13:05:22;;;;;;;1.70;0.97;;;17.60;56.00;;;;;;5100638;28;20449;-42
2022/09/18 13:08:24;;;;;;;1.60;0.87;;;17.70;57.30;;;;;;5093487;28;20440;-43
2022/09/18 13:10:53;;;;;;;2.13;1.13;;;17.30;56.70;;;;;;5100113;28;20800;-44
2022/09/18 13:13:36;;;;;;;2.77;1.30;;;17.10;57.90;;;;;;5100582;28;20860;-43
2022/09/18 13:16:42;;;;;;;2.60;1.33;;;16.60;58.50;;;;;;5134701;27;20459;-43
2022/09/18 13:19:17;;;;;;;3.73;0.80;;;16.20;59.00;;;;;;5041349;28;20511;-43